sensor_id;sensor_type;location;lat;lon;timestamp;pressure;altitude;pressure_sealevel;temperature;humidity
77749;BME280;66938;52.084;5.228;2023-10-31T00:02:24;99726.0;;;11.34;91.77
77749;BME280;66938;52.084;5.228;2023-10-31T00:04:01;99728.0;;;11.31;91.97
77749;BME280;66938;52.084;5.228;2023-10-31T00:05:36;99730.0;;;11.27;91.96
77749;BME280;66938;52.084;5.228;2023-10-31T00:07:13;99740.0;;;11.37;91.68
77749;BME280;66938;52.084;5.228;2023-10-31T00:10:25;99749.0;;;11.38;91.54
77749;BME280;66938;52.084;5.228;2023-10-31T00:12:02;99749.0;;;11.34;91.69
77749;BME280;66938;52.084;5.228;2023-10-31T00:13:38;99755.0;;;11.34;92.0
77749;BME280;66938;52.084;5.228;2023-10-31T00:16:50;99755.0;;;11.37;91.86
77749;BME280;66938;52.084;5.228;2023-10-31T00:18:26;99755.0;;;11.22;92.35
77749;BME280;66938;52.084;5.228;2023-10-31T00:20:03;99752.0;;;11.27;92.55
77749;BME280;66938;52.084;5.228;2023-10-31T00:23:16;99753.0;;;11.22;92.87
77749;BME280;66938;52.084;5.228;2023-10-31T00:24:52;99746.0;;;11.26;92.79
77749;BME280;66938;52.084;5.228;2023-10-31T00:26:28;99748.0;;;11.26;93.05
77749;BME280;66938;52.084;5.228;2023-10-31T00:28:04;99743.0;;;11.25;92.89
77749;BME280;66938;52.084;5.228;2023-10-31T00:31:16;99743.0;;;11.28;93.03
77749;BME280;66938;52.084;5.228;2023-10-31T00:32:52;99745.0;;;11.33;92.99
77749;BME280;66938;52.084;5.228;2023-10-31T00:34:28;99752.0;;;11.38;92.9
77749;BME280;66938;52.084;5.228;2023-10-31T00:37:41;99750.0;;;11.39;92.94
77749;BME280;66938;52.084;5.228;2023-10-31T00:39:17;99751.0;;;11.43;92.84
77749;BME280;66938;52.084;5.228;2023-10-31T00:40:53;99752.0;;;11.45;92.68
77749;BME280;66938;52.084;5.228;2023-10-31T00:44:05;99749.0;;;11.34;93.31
77749;BME280;66938;52.084;5.228;2023-10-31T00:45:41;99750.0;;;11.43;93.08
77749;BME280;66938;52.084;5.228;2023-10-31T00:47:17;99762.0;;;11.42;93.09
77749;BME280;66938;52.084;5.228;2023-10-31T00:50:29;99764.0;;;11.44;93.09
77749;BME280;66938;52.084;5.228;2023-10-31T00:52:05;99766.0;;;11.41;93.23
77749;BME280;66938;52.084;5.228;2023-10-31T00:53:42;99771.0;;;11.48;93.12
77749;BME280;66938;52.084;5.228;2023-10-31T00:55:18;99770.0;;;11.5;93.08
77749;BME280;66938;52.084;5.228;2023-10-31T00:58:31;99771.0;;;11.48;93.11
77749;BME280;66938;52.084;5.228;2023-10-31T01:00:08;99772.0;;;11.49;93.18
77749;BME280;66938;52.084;5.228;2023-10-31T01:01:44;99781.0;;;11.52;93.11
77749;BME280;66938;52.084;5.228;2023-10-31T01:04:56;99780.0;;;11.49;93.1
77749;BME280;66938;52.084;5.228;2023-10-31T01:06:32;99777.0;;;11.46;92.81
77749;BME280;66938;52.084;5.228;2023-10-31T01:08:08;99774.0;;;11.47;92.82
77749;BME280;66938;52.084;5.228;2023-10-31T01:11:20;99786.0;;;11.46;92.75
77749;BME280;66938;52.084;5.228;2023-10-31T01:12:57;99785.0;;;11.47;92.67
77749;BME280;66938;52.084;5.228;2023-10-31T01:14:33;99780.0;;;11.5;92.49
77749;BME280;66938;52.084;5.228;2023-10-31T01:16:09;99783.0;;;11.49;92.14
77749;BME280;66938;52.084;5.228;2023-10-31T01:19:21;99786.0;;;11.51;92.21
77749;BME280;66938;52.084;5.228;2023-10-31T01:20:57;99785.0;;;11.54;92.01
77749;BME280;66938;52.084;5.228;2023-10-31T01:22:33;99784.0;;;11.54;91.93
77749;BME280;66938;52.084;5.228;2023-10-31T01:25:45;99784.0;;;11.53;92.08
77749;BME280;66938;52.084;5.228;2023-10-31T01:27:21;99783.0;;;11.54;92.0
77749;BME280;66938;52.084;5.228;2023-10-31T01:28:58;99785.0;;;11.5;91.9
77749;BME280;66938;52.084;5.228;2023-10-31T01:32:10;99792.0;;;11.59;91.89
77749;BME280;66938;52.084;5.228;2023-10-31T01:33:46;99788.0;;;11.5;92.24
77749;BME280;66938;52.084;5.228;2023-10-31T01:35:22;99787.0;;;11.47;92.51
77749;BME280;66938;52.084;5.228;2023-10-31T01:38:34;99789.0;;;11.47;92.6
77749;BME280;66938;52.084;5.228;2023-10-31T01:40:12;99788.0;;;11.5;92.57
77749;BME280;66938;52.084;5.228;2023-10-31T01:41:48;99788.0;;;11.46;92.77
77749;BME280;66938;52.084;5.228;2023-10-31T01:43:30;99788.0;;;11.42;92.85
77749;BME280;66938;52.084;5.228;2023-10-31T01:46:43;99790.0;;;11.41;93.12
77749;BME280;66938;52.084;5.228;2023-10-31T01:48:19;99793.0;;;11.46;93.1
77749;BME280;66938;52.084;5.228;2023-10-31T01:49:55;99789.0;;;11.49;93.0
77749;BME280;66938;52.084;5.228;2023-10-31T01:53:07;99797.0;;;11.55;92.71
77749;BME280;66938;52.084;5.228;2023-10-31T01:54:43;99803.0;;;11.56;92.71
77749;BME280;66938;52.084;5.228;2023-10-31T01:56:21;99803.0;;;11.6;92.66
77749;BME280;66938;52.084;5.228;2023-10-31T01:57:58;99799.0;;;11.61;92.64
77749;BME280;66938;52.084;5.228;2023-10-31T02:01:10;99802.0;;;11.6;92.63
77749;BME280;66938;52.084;5.228;2023-10-31T02:02:47;99800.0;;;11.56;92.9
77749;BME280;66938;52.084;5.228;2023-10-31T02:04:24;99801.0;;;11.56;93.09
77749;BME280;66938;52.084;5.228;2023-10-31T02:07:36;99797.0;;;11.51;93.3
77749;BME280;66938;52.084;5.228;2023-10-31T02:09:12;99800.0;;;11.52;93.29
77749;BME280;66938;52.084;5.228;2023-10-31T02:10:48;99797.0;;;11.48;93.48
77749;BME280;66938;52.084;5.228;2023-10-31T02:14:08;99798.0;;;11.5;93.78
77749;BME280;66938;52.084;5.228;2023-10-31T02:15:45;99796.0;;;11.46;93.89
77749;BME280;66938;52.084;5.228;2023-10-31T02:17:21;99805.0;;;11.47;93.92
77749;BME280;66938;52.084;5.228;2023-10-31T02:18:58;99801.0;;;11.44;94.05
77749;BME280;66938;52.084;5.228;2023-10-31T02:22:11;99813.0;;;11.46;94.13
77749;BME280;66938;52.084;5.228;2023-10-31T02:23:56;99810.0;;;11.53;94.04
77749;BME280;66938;52.084;5.228;2023-10-31T02:25:33;99813.0;;;11.56;93.93
77749;BME280;66938;52.084;5.228;2023-10-31T02:28:45;99814.0;;;11.57;93.96
77749;BME280;66938;52.084;5.228;2023-10-31T02:30:21;99818.0;;;11.53;93.97
77749;BME280;66938;52.084;5.228;2023-10-31T02:31:57;99823.0;;;11.54;94.02
77749;BME280;66938;52.084;5.228;2023-10-31T02:33:33;99818.0;;;11.56;93.93
77749;BME280;66938;52.084;5.228;2023-10-31T02:36:45;99818.0;;;11.53;93.98
77749;BME280;66938;52.084;5.228;2023-10-31T02:38:22;99822.0;;;11.65;93.58
77749;BME280;66938;52.084;5.228;2023-10-31T02:39:58;99827.0;;;11.7;93.59
77749;BME280;66938;52.084;5.228;2023-10-31T02:43:10;99830.0;;;11.72;93.4
77749;BME280;66938;52.084;5.228;2023-10-31T02:44:46;99824.0;;;11.67;93.46
77749;BME280;66938;52.084;5.228;2023-10-31T02:46:22;99826.0;;;11.59;94.07
77749;BME280;66938;52.084;5.228;2023-10-31T02:49:34;99831.0;;;11.67;93.76
77749;BME280;66938;52.084;5.228;2023-10-31T02:51:10;99830.0;;;11.65;94.03
77749;BME280;66938;52.084;5.228;2023-10-31T02:52:46;99833.0;;;11.7;93.63
77749;BME280;66938;52.084;5.228;2023-10-31T02:55:59;99830.0;;;11.59;93.91
77749;BME280;66938;52.084;5.228;2023-10-31T02:57:35;99838.0;;;11.67;93.64
77749;BME280;66938;52.084;5.228;2023-10-31T02:59:11;99835.0;;;11.62;93.76
77749;BME280;66938;52.084;5.228;2023-10-31T03:00:47;99843.0;;;11.72;93.55
77749;BME280;66938;52.084;5.228;2023-10-31T03:03:59;99842.0;;;11.7;93.17
77749;BME280;66938;52.084;5.228;2023-10-31T03:05:35;99847.0;;;11.73;93.39
77749;BME280;66938;52.084;5.228;2023-10-31T03:07:11;99849.0;;;11.73;93.29
77749;BME280;66938;52.084;5.228;2023-10-31T03:10:23;99846.0;;;11.75;93.17
77749;BME280;66938;52.084;5.228;2023-10-31T03:11:59;99855.0;;;11.78;92.91
77749;BME280;66938;52.084;5.228;2023-10-31T03:13:36;99856.0;;;11.76;92.66
77749;BME280;66938;52.084;5.228;2023-10-31T03:16:48;99863.0;;;11.78;92.45
77749;BME280;66938;52.084;5.228;2023-10-31T03:18:24;99864.0;;;11.81;92.38
77749;BME280;66938;52.084;5.228;2023-10-31T03:20:00;99867.0;;;11.81;92.26
77749;BME280;66938;52.084;5.228;2023-10-31T03:23:13;99875.0;;;11.72;92.3
77749;BME280;66938;52.084;5.228;2023-10-31T03:24:48;99880.0;;;11.72;91.82
77749;BME280;66938;52.084;5.228;2023-10-31T03:26:24;99877.0;;;11.78;91.95
77749;BME280;66938;52.084;5.228;2023-10-31T03:28:01;99884.0;;;11.8;91.78
77749;BME280;66938;52.084;5.228;2023-10-31T03:31:14;99891.0;;;11.74;91.95
77749;BME280;66938;52.084;5.228;2023-10-31T03:32:51;99895.0;;;11.76;91.84
77749;BME280;66938;52.084;5.228;2023-10-31T03:34:27;99896.0;;;11.81;91.7
77749;BME280;66938;52.084;5.228;2023-10-31T03:37:40;99898.0;;;11.81;91.69
77749;BME280;66938;52.084;5.228;2023-10-31T03:39:16;99898.0;;;11.8;91.75
77749;BME280;66938;52.084;5.228;2023-10-31T03:40:52;99903.0;;;11.74;91.86
77749;BME280;66938;52.084;5.228;2023-10-31T03:44:05;99902.0;;;11.77;91.66
77749;BME280;66938;52.084;5.228;2023-10-31T03:45:42;99903.0;;;11.74;91.65
77749;BME280;66938;52.084;5.228;2023-10-31T03:47:18;99910.0;;;11.77;91.57
77749;BME280;66938;52.084;5.228;2023-10-31T03:48:54;99914.0;;;11.73;91.81
77749;BME280;66938;52.084;5.228;2023-10-31T03:52:06;99912.0;;;11.63;91.7
77749;BME280;66938;52.084;5.228;2023-10-31T03:53:42;99921.0;;;11.65;91.94
77749;BME280;66938;52.084;5.228;2023-10-31T03:55:18;99925.0;;;11.69;91.91
77749;BME280;66938;52.084;5.228;2023-10-31T03:58:30;99928.0;;;11.73;91.77
77749;BME280;66938;52.084;5.228;2023-10-31T04:00:07;99928.0;;;11.74;91.56
77749;BME280;66938;52.084;5.228;2023-10-31T04:01:43;99927.0;;;11.73;91.65
77749;BME280;66938;52.084;5.228;2023-10-31T04:04:56;99930.0;;;11.67;91.89
77749;BME280;66938;52.084;5.228;2023-10-31T04:06:32;99935.0;;;11.7;91.77
77749;BME280;66938;52.084;5.228;2023-10-31T04:08:08;99936.0;;;11.73;91.6
77749;BME280;66938;52.084;5.228;2023-10-31T04:11:20;99933.0;;;11.67;91.59
77749;BME280;66938;52.084;5.228;2023-10-31T04:12:56;99935.0;;;11.65;91.46
77749;BME280;66938;52.084;5.228;2023-10-31T04:14:34;99932.0;;;11.68;91.32
77749;BME280;66938;52.084;5.228;2023-10-31T04:16:10;99938.0;;;11.6;91.2
77749;BME280;66938;52.084;5.228;2023-10-31T04:19:24;99942.0;;;11.59;91.16
77749;BME280;66938;52.084;5.228;2023-10-31T04:21:00;99944.0;;;11.54;91.06
77749;BME280;66938;52.084;5.228;2023-10-31T04:22:36;99949.0;;;11.55;90.92
77749;BME280;66938;52.084;5.228;2023-10-31T04:25:48;99944.0;;;11.51;90.79
77749;BME280;66938;52.084;5.228;2023-10-31T04:27:24;99946.0;;;11.49;90.43
77749;BME280;66938;52.084;5.228;2023-10-31T04:29:00;99947.0;;;11.4;90.51
77749;BME280;66938;52.084;5.228;2023-10-31T04:32:12;99947.0;;;11.36;90.32
77749;BME280;66938;52.084;5.228;2023-10-31T04:33:48;99953.0;;;11.41;90.4
77749;BME280;66938;52.084;5.228;2023-10-31T04:35:25;99952.0;;;11.41;90.45
77749;BME280;66938;52.084;5.228;2023-10-31T04:37:01;99955.0;;;11.39;90.44
77749;BME280;66938;52.084;5.228;2023-10-31T04:40:13;99956.0;;;11.44;90.36
77749;BME280;66938;52.084;5.228;2023-10-31T04:41:49;99960.0;;;11.47;90.3
77749;BME280;66938;52.084;5.228;2023-10-31T04:43:25;99960.0;;;11.49;90.31
77749;BME280;66938;52.084;5.228;2023-10-31T04:46:37;99959.0;;;11.47;90.36
77749;BME280;66938;52.084;5.228;2023-10-31T04:48:13;99960.0;;;11.39;90.65
77749;BME280;66938;52.084;5.228;2023-10-31T04:49:49;99956.0;;;11.29;90.83
77749;BME280;66938;52.084;5.228;2023-10-31T04:53:02;99956.0;;;11.26;90.41
77749;BME280;66938;52.084;5.228;2023-10-31T04:54:38;99959.0;;;11.32;90.66
77749;BME280;66938;52.084;5.228;2023-10-31T04:56:16;99963.0;;;11.3;90.53
77749;BME280;66938;52.084;5.228;2023-10-31T04:57:52;99960.0;;;11.25;90.41
77749;BME280;66938;52.084;5.228;2023-10-31T05:01:08;99963.0;;;11.3;90.26
77749;BME280;66938;52.084;5.228;2023-10-31T05:02:44;99970.0;;;11.25;90.46
77749;BME280;66938;52.084;5.228;2023-10-31T05:04:20;99982.0;;;11.27;90.46
77749;BME280;66938;52.084;5.228;2023-10-31T05:07:32;99981.0;;;11.2;90.72
77749;BME280;66938;52.084;5.228;2023-10-31T05:09:09;99988.0;;;11.23;90.6
77749;BME280;66938;52.084;5.228;2023-10-31T05:10:45;99987.0;;;11.2;90.64
77749;BME280;66938;52.084;5.228;2023-10-31T05:13:57;99988.0;;;11.2;90.78
77749;BME280;66938;52.084;5.228;2023-10-31T05:15:33;99990.0;;;11.15;90.81
77749;BME280;66938;52.084;5.228;2023-10-31T05:17:09;99990.0;;;11.14;90.94
77749;BME280;66938;52.084;5.228;2023-10-31T05:20:21;99992.0;;;11.14;91.15
77749;BME280;66938;52.084;5.228;2023-10-31T05:21:57;99990.0;;;11.08;91.55
77749;BME280;66938;52.084;5.228;2023-10-31T05:23:33;99993.0;;;11.09;91.56
77749;BME280;66938;52.084;5.228;2023-10-31T05:25:10;100000.0;;;11.13;91.48
77749;BME280;66938;52.084;5.228;2023-10-31T05:28:22;100001.0;;;11.15;91.62
77749;BME280;66938;52.084;5.228;2023-10-31T05:29:58;100001.0;;;11.16;91.67
77749;BME280;66938;52.084;5.228;2023-10-31T05:31:34;100002.0;;;11.18;91.59
77749;BME280;66938;52.084;5.228;2023-10-31T05:34:47;100012.0;;;11.13;91.69
77749;BME280;66938;52.084;5.228;2023-10-31T05:36:24;100016.0;;;11.17;91.5
77749;BME280;66938;52.084;5.228;2023-10-31T05:38:01;100021.0;;;11.14;91.4
77749;BME280;66938;52.084;5.228;2023-10-31T05:41:14;100021.0;;;11.14;91.34
77749;BME280;66938;52.084;5.228;2023-10-31T05:42:49;100026.0;;;11.13;91.37
77749;BME280;66938;52.084;5.228;2023-10-31T05:44:26;100033.0;;;11.16;91.27
77749;BME280;66938;52.084;5.228;2023-10-31T05:46:02;100031.0;;;11.17;91.24
77749;BME280;66938;52.084;5.228;2023-10-31T05:49:14;100034.0;;;11.2;91.26
77749;BME280;66938;52.084;5.228;2023-10-31T05:50:50;100035.0;;;11.24;90.93
77749;BME280;66938;52.084;5.228;2023-10-31T05:52:27;100038.0;;;11.21;90.93
77749;BME280;66938;52.084;5.228;2023-10-31T05:55:42;100035.0;;;11.14;90.92
77749;BME280;66938;52.084;5.228;2023-10-31T05:57:18;100039.0;;;11.15;91.0
77749;BME280;66938;52.084;5.228;2023-10-31T05:58:55;100037.0;;;11.16;90.93
77749;BME280;66938;52.084;5.228;2023-10-31T06:02:07;100038.0;;;11.1;91.1
77749;BME280;66938;52.084;5.228;2023-10-31T06:03:43;100037.0;;;11.02;91.42
77749;BME280;66938;52.084;5.228;2023-10-31T06:05:19;100045.0;;;11.01;91.71
77749;BME280;66938;52.084;5.228;2023-10-31T06:06:55;100046.0;;;11.1;91.42
77749;BME280;66938;52.084;5.228;2023-10-31T06:10:08;100047.0;;;11.17;91.11
77749;BME280;66938;52.084;5.228;2023-10-31T06:11:43;100049.0;;;11.07;91.18
77749;BME280;66938;52.084;5.228;2023-10-31T06:13:20;100048.0;;;10.99;91.68
77749;BME280;66938;52.084;5.228;2023-10-31T06:16:32;100052.0;;;11.08;91.29
77749;BME280;66938;52.084;5.228;2023-10-31T06:18:08;100052.0;;;11.1;91.22
77749;BME280;66938;52.084;5.228;2023-10-31T06:19:44;100058.0;;;10.99;91.36
77749;BME280;66938;52.084;5.228;2023-10-31T06:22:56;100053.0;;;10.97;91.62
77749;BME280;66938;52.084;5.228;2023-10-31T06:24:32;100056.0;;;10.9;92.03
77749;BME280;66938;52.084;5.228;2023-10-31T06:26:08;100055.0;;;10.95;91.95
77749;BME280;66938;52.084;5.228;2023-10-31T06:29:21;100057.0;;;10.9;92.17
77749;BME280;66938;52.084;5.228;2023-10-31T06:30:57;100057.0;;;10.93;92.1
77749;BME280;66938;52.084;5.228;2023-10-31T06:32:33;100059.0;;;10.97;92.22
77749;BME280;66938;52.084;5.228;2023-10-31T06:34:09;100061.0;;;10.98;92.07
77749;BME280;66938;52.084;5.228;2023-10-31T06:37:21;100067.0;;;10.92;92.26
77749;BME280;66938;52.084;5.228;2023-10-31T06:38:57;100074.0;;;10.94;92.12
77749;BME280;66938;52.084;5.228;2023-10-31T06:40:33;100073.0;;;10.98;92.01
77749;BME280;66938;52.084;5.228;2023-10-31T06:43:45;100077.0;;;10.9;92.2
77749;BME280;66938;52.084;5.228;2023-10-31T06:45:21;100081.0;;;10.84;92.52
77749;BME280;66938;52.084;5.228;2023-10-31T06:46:58;100086.0;;;10.82;92.77
77749;BME280;66938;52.084;5.228;2023-10-31T06:50:10;100089.0;;;10.88;92.58
77749;BME280;66938;52.084;5.228;2023-10-31T06:51:46;100091.0;;;10.89;92.59
77749;BME280;66938;52.084;5.228;2023-10-31T06:53:22;100092.0;;;10.9;92.41
77749;BME280;66938;52.084;5.228;2023-10-31T06:56:34;100092.0;;;10.91;92.57
77749;BME280;66938;52.084;5.228;2023-10-31T06:58:10;100092.0;;;10.97;92.3
77749;BME280;66938;52.084;5.228;2023-10-31T06:59:46;100093.0;;;10.98;92.13
77749;BME280;66938;52.084;5.228;2023-10-31T07:01:23;100097.0;;;10.98;92.11
77749;BME280;66938;52.084;5.228;2023-10-31T07:04:36;100102.0;;;10.91;92.33
77749;BME280;66938;52.084;5.228;2023-10-31T07:06:12;100099.0;;;10.95;92.29
77749;BME280;66938;52.084;5.228;2023-10-31T07:07:48;100105.0;;;10.99;92.26
77749;BME280;66938;52.084;5.228;2023-10-31T07:11:01;100107.0;;;10.89;92.74
77749;BME280;66938;52.084;5.228;2023-10-31T07:12:37;100116.0;;;10.89;93.13
77749;BME280;66938;52.084;5.228;2023-10-31T07:14:14;100115.0;;;10.93;93.22
77749;BME280;66938;52.084;5.228;2023-10-31T07:17:26;100121.0;;;11.01;93.14
77749;BME280;66938;52.084;5.228;2023-10-31T07:19:03;100115.0;;;11.06;93.08
77749;BME280;66938;52.084;5.228;2023-10-31T07:20:39;100123.0;;;11.05;93.2
77749;BME280;66938;52.084;5.228;2023-10-31T07:22:15;100122.0;;;11.03;93.34
77749;BME280;66938;52.084;5.228;2023-10-31T07:25:27;100122.0;;;11.03;93.59
77749;BME280;66938;52.084;5.228;2023-10-31T07:27:04;100128.0;;;11.06;93.49
77749;BME280;66938;52.084;5.228;2023-10-31T07:28:40;100128.0;;;11.06;93.75
77749;BME280;66938;52.084;5.228;2023-10-31T07:31:52;100130.0;;;11.17;93.5
77749;BME280;66938;52.084;5.228;2023-10-31T07:33:28;100130.0;;;11.22;93.49
77749;BME280;66938;52.084;5.228;2023-10-31T07:35:05;100134.0;;;11.33;93.03
77749;BME280;66938;52.084;5.228;2023-10-31T07:38:18;100133.0;;;11.34;92.98
77749;BME280;66938;52.084;5.228;2023-10-31T07:39:54;100139.0;;;11.32;92.93
77749;BME280;66938;52.084;5.228;2023-10-31T07:41:30;100140.0;;;11.36;93.06
77749;BME280;66938;52.084;5.228;2023-10-31T07:44:42;100141.0;;;11.37;92.77
77749;BME280;66938;52.084;5.228;2023-10-31T07:46:18;100149.0;;;11.37;92.54
77749;BME280;66938;52.084;5.228;2023-10-31T07:47:54;100152.0;;;11.41;92.14
77749;BME280;66938;52.084;5.228;2023-10-31T07:49:30;100151.0;;;11.36;92.49
77749;BME280;66938;52.084;5.228;2023-10-31T07:52:42;100149.0;;;11.4;92.41
77749;BME280;66938;52.084;5.228;2023-10-31T07:54:18;100149.0;;;11.43;92.1
77749;BME280;66938;52.084;5.228;2023-10-31T07:55:55;100151.0;;;11.42;92.18
77749;BME280;66938;52.084;5.228;2023-10-31T07:59:07;100155.0;;;11.45;92.24
77749;BME280;66938;52.084;5.228;2023-10-31T08:00:43;100148.0;;;11.48;92.03
77749;BME280;66938;52.084;5.228;2023-10-31T08:02:19;100153.0;;;11.5;92.15
77749;BME280;66938;52.084;5.228;2023-10-31T08:05:31;100147.0;;;11.57;92.15
77749;BME280;66938;52.084;5.228;2023-10-31T08:07:07;100152.0;;;11.66;91.86
77749;BME280;66938;52.084;5.228;2023-10-31T08:08:43;100145.0;;;11.63;92.26
77749;BME280;66938;52.084;5.228;2023-10-31T08:10:19;100149.0;;;11.65;92.43
77749;BME280;66938;52.084;5.228;2023-10-31T08:13:32;100160.0;;;11.78;92.24
77749;BME280;66938;52.084;5.228;2023-10-31T08:15:09;100156.0;;;11.8;92.15
77749;BME280;66938;52.084;5.228;2023-10-31T08:16:46;100155.0;;;11.86;92.15
77749;BME280;66938;52.084;5.228;2023-10-31T08:19:59;100160.0;;;11.94;92.08
77749;BME280;66938;52.084;5.228;2023-10-31T08:21:36;100153.0;;;11.94;91.93
77749;BME280;66938;52.084;5.228;2023-10-31T08:23:12;100159.0;;;12.05;91.92
77749;BME280;66938;52.084;5.228;2023-10-31T08:26:25;100158.0;;;12.11;91.85
77749;BME280;66938;52.084;5.228;2023-10-31T08:28:01;100161.0;;;12.1;91.21
77749;BME280;66938;52.084;5.228;2023-10-31T08:29:37;100160.0;;;12.21;91.44
77749;BME280;66938;52.084;5.228;2023-10-31T08:31:13;100159.0;;;12.13;91.25
77749;BME280;66938;52.084;5.228;2023-10-31T08:34:25;100161.0;;;12.23;90.81
77749;BME280;66938;52.084;5.228;2023-10-31T08:36:02;100165.0;;;12.21;90.44
77749;BME280;66938;52.084;5.228;2023-10-31T08:37:39;100161.0;;;12.31;90.57
77749;BME280;66938;52.084;5.228;2023-10-31T08:40:51;100161.0;;;12.4;90.54
77749;BME280;66938;52.084;5.228;2023-10-31T08:42:28;100164.0;;;12.44;90.78
77749;BME280;66938;52.084;5.228;2023-10-31T08:44:04;100171.0;;;12.46;90.78
77749;BME280;66938;52.084;5.228;2023-10-31T08:47:16;100169.0;;;12.4;90.55
77749;BME280;66938;52.084;5.228;2023-10-31T08:48:52;100169.0;;;12.48;90.46
77749;BME280;66938;52.084;5.228;2023-10-31T08:50:28;100169.0;;;12.44;90.2
77749;BME280;66938;52.084;5.228;2023-10-31T08:53:40;100176.0;;;12.41;90.22
77749;BME280;66938;52.084;5.228;2023-10-31T08:55:16;100188.0;;;12.47;90.1
77749;BME280;66938;52.084;5.228;2023-10-31T08:56:52;100190.0;;;12.49;90.08
77749;BME280;66938;52.084;5.228;2023-10-31T08:58:28;100189.0;;;12.51;90.51
77749;BME280;66938;52.084;5.228;2023-10-31T09:01:43;100194.0;;;12.65;90.13
77749;BME280;66938;52.084;5.228;2023-10-31T09:03:18;100199.0;;;12.72;90.02
77749;BME280;66938;52.084;5.228;2023-10-31T09:04:55;100203.0;;;12.7;89.79
77749;BME280;66938;52.084;5.228;2023-10-31T09:08:07;100213.0;;;12.77;89.74
77749;BME280;66938;52.084;5.228;2023-10-31T09:09:43;100212.0;;;12.74;89.25
77749;BME280;66938;52.084;5.228;2023-10-31T09:11:19;100212.0;;;12.81;89.33
77749;BME280;66938;52.084;5.228;2023-10-31T09:14:31;100218.0;;;12.86;88.99
77749;BME280;66938;52.084;5.228;2023-10-31T09:16:08;100224.0;;;12.91;88.59
77749;BME280;66938;52.084;5.228;2023-10-31T09:17:45;100225.0;;;12.95;88.28
77749;BME280;66938;52.084;5.228;2023-10-31T09:19:21;100228.0;;;13.1;88.39
77749;BME280;66938;52.084;5.228;2023-10-31T09:22:33;100232.0;;;13.17;88.49
77749;BME280;66938;52.084;5.228;2023-10-31T09:24:09;100227.0;;;13.1;88.04
77749;BME280;66938;52.084;5.228;2023-10-31T09:25:46;100230.0;;;13.2;87.72
77749;BME280;66938;52.084;5.228;2023-10-31T09:28:58;100228.0;;;13.25;87.81
77749;BME280;66938;52.084;5.228;2023-10-31T09:30:34;100227.0;;;13.32;87.51
77749;BME280;66938;52.084;5.228;2023-10-31T09:32:10;100235.0;;;13.41;87.66
77749;BME280;66938;52.084;5.228;2023-10-31T09:35:22;100240.0;;;13.47;87.46
77749;BME280;66938;52.084;5.228;2023-10-31T09:36:59;100239.0;;;13.47;87.05
77749;BME280;66938;52.084;5.228;2023-10-31T09:38:35;100239.0;;;13.51;85.94
77749;BME280;66938;52.084;5.228;2023-10-31T09:41:47;100238.0;;;13.43;85.95
77749;BME280;66938;52.084;5.228;2023-10-31T09:43:23;100245.0;;;13.51;86.37
77749;BME280;66938;52.084;5.228;2023-10-31T09:44:59;100245.0;;;13.53;86.27
77749;BME280;66938;52.084;5.228;2023-10-31T09:46:36;100247.0;;;13.59;86.96
77749;BME280;66938;52.084;5.228;2023-10-31T09:49:50;100247.0;;;13.51;86.37
77749;BME280;66938;52.084;5.228;2023-10-31T09:51:27;100256.0;;;13.51;87.02
77749;BME280;66938;52.084;5.228;2023-10-31T09:53:05;100255.0;;;13.5;86.91
77749;BME280;66938;52.084;5.228;2023-10-31T09:56:19;100255.0;;;13.54;86.56
77749;BME280;66938;52.084;5.228;2023-10-31T09:57:55;100256.0;;;13.6;86.59
77749;BME280;66938;52.084;5.228;2023-10-31T09:59:31;100258.0;;;13.67;86.61
77749;BME280;66938;52.084;5.228;2023-10-31T10:02:43;100256.0;;;13.63;86.09
77749;BME280;66938;52.084;5.228;2023-10-31T10:04:19;100259.0;;;13.76;87.07
77749;BME280;66938;52.084;5.228;2023-10-31T10:05:57;100265.0;;;13.89;86.27
77749;BME280;66938;52.084;5.228;2023-10-31T10:07:34;100264.0;;;13.99;86.12
77749;BME280;66938;52.084;5.228;2023-10-31T10:10:47;100271.0;;;14.08;86.56
77749;BME280;66938;52.084;5.228;2023-10-31T10:12:24;100269.0;;;14.01;85.08
77749;BME280;66938;52.084;5.228;2023-10-31T10:14:00;100274.0;;;14.04;85.57
77749;BME280;66938;52.084;5.228;2023-10-31T10:17:21;100281.0;;;14.06;85.74
77749;BME280;66938;52.084;5.228;2023-10-31T10:19:14;100283.0;;;14.08;85.25
77749;BME280;66938;52.084;5.228;2023-10-31T10:20:55;100286.0;;;14.04;84.79
77749;BME280;66938;52.084;5.228;2023-10-31T10:22:32;100290.0;;;14.09;85.03
77749;BME280;66938;52.084;5.228;2023-10-31T10:25:48;100293.0;;;14.03;85.17
77749;BME280;66938;52.084;5.228;2023-10-31T10:27:25;100293.0;;;14.04;85.04
77749;BME280;66938;52.084;5.228;2023-10-31T10:29:02;100294.0;;;14.12;85.43
77749;BME280;66938;52.084;5.228;2023-10-31T10:30:38;100303.0;;;14.21;85.52
77749;BME280;66938;52.084;5.228;2023-10-31T10:33:50;100307.0;;;14.06;84.88
77749;BME280;66938;52.084;5.228;2023-10-31T10:35:26;100308.0;;;14.19;85.1
77749;BME280;66938;52.084;5.228;2023-10-31T10:37:04;100306.0;;;14.26;84.64
77749;BME280;66938;52.084;5.228;2023-10-31T10:40:22;100305.0;;;14.31;83.98
77749;BME280;66938;52.084;5.228;2023-10-31T10:42:00;100301.0;;;14.4;83.86
77749;BME280;66938;52.084;5.228;2023-10-31T10:43:38;100297.0;;;14.33;84.07
77749;BME280;66938;52.084;5.228;2023-10-31T10:45:15;100301.0;;;14.4;84.3
77749;BME280;66938;52.084;5.228;2023-10-31T10:48:34;100305.0;;;14.45;83.62
77749;BME280;66938;52.084;5.228;2023-10-31T10:50:15;100305.0;;;14.5;83.78
77749;BME280;66938;52.084;5.228;2023-10-31T10:51:53;100301.0;;;14.48;83.1
77749;BME280;66938;52.084;5.228;2023-10-31T10:53:35;100305.0;;;14.45;82.5
77749;BME280;66938;52.084;5.228;2023-10-31T10:57:09;100298.0;;;14.47;82.24
77749;BME280;66938;52.084;5.228;2023-10-31T10:58:51;100303.0;;;14.47;82.58
77749;BME280;66938;52.084;5.228;2023-10-31T11:00:31;100305.0;;;14.56;82.02
77749;BME280;66938;52.084;5.228;2023-10-31T11:02:07;100305.0;;;14.53;81.45
77749;BME280;66938;52.084;5.228;2023-10-31T11:05:23;100305.0;;;14.6;80.34
77749;BME280;66938;52.084;5.228;2023-10-31T11:07:00;100311.0;;;14.6;80.09
77749;BME280;66938;52.084;5.228;2023-10-31T11:08:37;100309.0;;;14.65;80.73
77749;BME280;66938;52.084;5.228;2023-10-31T11:10:14;100311.0;;;14.63;80.95